createdAt,value
2018-04-23T00:00:00.871Z,20.59
2018-04-23T00:03:04.216Z,20.54
2018-04-23T00:06:07.612Z,20.47
2018-04-23T00:09:10.906Z,20.46
2018-04-23T00:12:14.166Z,20.44
2018-04-23T00:15:17.459Z,20.38
2018-04-23T00:18:20.796Z,20.29
2018-04-23T00:21:24.035Z,20.24
2018-04-23T00:24:27.373Z,20.21
2018-04-23T00:27:30.643Z,20.21
2018-04-23T00:30:33.920Z,20.22
2018-04-23T00:33:37.176Z,20.15
2018-04-23T00:36:42.524Z,20.11
2018-04-23T00:39:46.348Z,20.07
2018-04-23T00:42:49.727Z,20.04
2018-04-23T00:45:52.923Z,20.04
2018-04-23T00:48:56.484Z,20.02
2018-04-23T00:51:59.838Z,19.94
2018-04-23T00:55:04.241Z,19.96
2018-04-23T00:58:07.555Z,19.92
2018-04-23T01:01:10.888Z,19.85
2018-04-23T01:04:14.243Z,19.79
2018-04-23T01:07:17.666Z,19.73
2018-04-23T01:10:21.054Z,19.67
2018-04-23T01:13:24.355Z,19.68
2018-04-23T01:16:27.656Z,19.72
2018-04-23T01:19:31.081Z,19.74
2018-04-23T01:22:34.439Z,19.85
2018-04-23T01:25:37.748Z,19.85
2018-04-23T01:28:41.029Z,19.77
2018-04-23T01:31:45.297Z,19.73
2018-04-23T01:34:48.560Z,19.73
2018-04-23T01:37:51.963Z,19.73
2018-04-23T01:40:55.341Z,19.63
2018-04-23T01:43:59.688Z,19.59
2018-04-23T01:47:03.161Z,19.58
2018-04-23T01:50:06.488Z,19.54
2018-04-23T01:53:09.704Z,19.53
2018-04-23T01:56:12.972Z,19.45
2018-04-23T01:59:16.511Z,19.50
2018-04-23T02:02:19.723Z,19.49
2018-04-23T02:05:23.068Z,19.41
2018-04-23T02:08:26.468Z,19.38
2018-04-23T02:11:29.747Z,19.29
2018-04-23T02:14:33.019Z,19.27
2018-04-23T02:17:36.359Z,19.30
2018-04-23T02:20:39.654Z,19.34
2018-04-23T02:23:43.056Z,19.36
2018-04-23T02:26:47.220Z,19.38
2018-04-23T02:29:50.571Z,19.40
2018-04-23T02:32:53.870Z,19.38
2018-04-23T02:35:57.321Z,19.39
2018-04-23T02:39:00.776Z,19.35
2018-04-23T02:42:03.992Z,19.39
2018-04-23T02:45:07.404Z,19.40
2018-04-23T02:48:10.707Z,19.40
2018-04-23T02:51:14.067Z,19.39
2018-04-23T02:54:18.518Z,19.34
2018-04-23T02:57:21.879Z,19.24
2018-04-23T03:00:25.094Z,19.26
2018-04-23T03:03:29.076Z,19.23
2018-04-23T03:06:32.412Z,19.18
2018-04-23T03:09:35.704Z,19.14
2018-04-23T03:12:38.979Z,19.08
2018-04-23T03:15:42.288Z,19.10
2018-04-23T03:18:45.543Z,19.10
2018-04-23T03:21:48.777Z,19.09
2018-04-23T03:24:52.192Z,19.06
2018-04-23T03:27:56.232Z,19.04
2018-04-23T03:30:59.504Z,19.00
2018-04-23T03:34:02.868Z,19.01
2018-04-23T03:37:06.202Z,19.01
2018-04-23T03:40:09.496Z,18.98
2018-04-23T03:43:12.848Z,18.95
2018-04-23T03:46:16.191Z,18.95
2018-04-23T03:49:19.444Z,18.92
2018-04-23T03:52:22.787Z,18.86
2018-04-23T03:55:26.942Z,18.83
2018-04-23T03:58:30.205Z,18.75
2018-04-23T04:01:33.597Z,18.74
2018-04-23T04:04:36.923Z,18.76
2018-04-23T04:07:40.172Z,18.66
2018-04-23T04:10:43.519Z,18.62
2018-04-23T04:13:58.239Z,18.69
2018-04-23T04:17:01.512Z,18.66
2018-04-23T04:20:04.810Z,18.64
2018-04-23T04:23:08.109Z,18.62
2018-04-23T04:26:13.399Z,18.58
2018-04-23T04:29:16.824Z,18.54
2018-04-23T04:32:20.190Z,18.48
2018-04-23T04:35:23.504Z,18.46
2018-04-23T04:38:28.136Z,18.50
2018-04-23T04:41:31.445Z,18.51
2018-04-23T04:44:34.594Z,18.52
2018-04-23T04:47:37.932Z,18.47
2018-04-23T04:50:41.234Z,18.51
2018-04-23T04:53:44.504Z,18.49
2018-04-23T04:56:47.972Z,18.51
2018-04-23T04:59:51.277Z,18.51
2018-04-23T05:02:55.093Z,18.53
2018-04-23T05:05:58.373Z,18.52
2018-04-23T05:09:01.686Z,18.52
2018-04-23T05:12:05.022Z,18.47
2018-04-23T05:15:08.405Z,18.40
2018-04-23T05:18:11.724Z,18.51
2018-04-23T05:21:15.012Z,18.63
2018-04-23T05:24:18.428Z,18.73
2018-04-23T05:27:21.812Z,18.83
2018-04-23T05:30:26.281Z,18.88
2018-04-23T05:33:29.668Z,18.87
2018-04-23T05:36:33.041Z,18.89
2018-04-23T05:39:36.317Z,18.91
2018-04-23T05:42:39.725Z,18.90
2018-04-23T05:45:43.026Z,18.82
2018-04-23T05:48:46.252Z,18.91
2018-04-23T05:51:49.623Z,18.98
2018-04-23T05:54:53.010Z,19.05
2018-04-23T05:57:56.343Z,19.10
2018-04-23T06:00:59.704Z,19.16
2018-04-23T06:04:02.986Z,19.13
2018-04-23T06:07:09.868Z,19.12
2018-04-23T06:10:13.149Z,18.88
2018-04-23T06:13:16.275Z,18.86
2018-04-23T06:16:19.605Z,18.77
2018-04-23T06:19:22.883Z,18.66
2018-04-23T06:22:26.267Z,18.32
2018-04-23T06:25:29.477Z,17.91
2018-04-23T06:28:32.706Z,17.65
2018-04-23T06:31:36.176Z,17.49
2018-04-23T06:34:39.573Z,17.53
2018-04-23T06:37:42.800Z,17.56
2018-04-23T06:40:46.155Z,17.61
2018-04-23T06:43:49.934Z,17.63
2018-04-23T06:46:54.299Z,17.51
2018-04-23T06:49:57.584Z,17.42
2018-04-23T06:53:00.812Z,17.44
2018-04-23T06:56:05.124Z,17.35
2018-04-23T06:59:08.374Z,17.40
2018-04-23T07:02:11.651Z,17.29
2018-04-23T07:05:15.029Z,17.37
2018-04-23T07:08:18.320Z,17.37
2018-04-23T07:11:21.678Z,17.39
2018-04-23T07:14:24.988Z,17.34
2018-04-23T07:17:28.520Z,17.37
2018-04-23T07:20:31.960Z,17.37
2018-04-23T07:23:35.297Z,17.28
2018-04-23T07:26:38.486Z,17.22
2018-04-23T07:29:41.893Z,17.22
2018-04-23T07:32:45.275Z,17.17
2018-04-23T07:35:48.522Z,17.28
2018-04-23T07:38:51.801Z,17.10
2018-04-23T07:41:55.187Z,17.07
2018-04-23T07:44:58.382Z,16.96
2018-04-23T07:48:01.799Z,16.94
2018-04-23T07:51:05.218Z,16.94
2018-04-23T07:54:08.553Z,16.99
2018-04-23T07:57:11.995Z,17.08
2018-04-23T08:00:15.411Z,17.19
2018-04-23T08:03:18.902Z,17.24
2018-04-23T08:06:22.100Z,17.21
2018-04-23T08:09:25.504Z,17.18
2018-04-23T08:12:28.878Z,17.17
2018-04-23T08:15:32.209Z,17.14
2018-04-23T08:18:35.519Z,17.09
2018-04-23T08:21:38.768Z,17.00
2018-04-23T08:24:42.084Z,17.01
2018-04-23T08:27:45.403Z,17.08
2018-04-23T08:30:48.720Z,17.05
2018-04-23T08:33:51.953Z,17.13
2018-04-23T08:36:55.268Z,17.19
2018-04-23T08:39:58.598Z,17.16
2018-04-23T08:43:01.954Z,17.08
2018-04-23T08:46:05.224Z,17.14
2018-04-23T08:49:08.573Z,17.15
2018-04-23T08:52:11.956Z,17.24
2018-04-23T08:55:15.250Z,17.18
2018-04-23T08:58:18.552Z,17.16
2018-04-23T09:01:22.119Z,17.28
2018-04-23T09:04:25.253Z,17.24
2018-04-23T09:07:29.663Z,17.30
2018-04-23T09:10:32.912Z,17.33
2018-04-23T09:13:36.208Z,17.49
2018-04-23T09:16:39.521Z,17.56
2018-04-23T09:19:42.877Z,17.61
2018-04-23T09:22:46.021Z,17.82
2018-04-23T09:25:49.344Z,17.89
2018-04-23T09:28:52.730Z,17.87
2018-04-23T09:31:56.036Z,17.89
2018-04-23T09:34:59.287Z,17.92
2018-04-23T09:38:02.645Z,18.20
2018-04-23T09:41:05.827Z,18.36
2018-04-23T09:44:09.063Z,18.58
2018-04-23T09:47:12.455Z,18.76
2018-04-23T09:50:15.829Z,18.84
2018-04-23T09:53:19.117Z,18.97
2018-04-23T09:56:22.532Z,18.92
2018-04-23T09:59:25.911Z,19.02
2018-04-23T10:02:29.233Z,19.30
2018-04-23T10:05:32.604Z,19.53
2018-04-23T10:08:35.989Z,19.56
2018-04-23T10:11:39.329Z,19.63
2018-04-23T10:14:42.632Z,19.67
2018-04-23T10:17:46.042Z,19.85
2018-04-23T10:20:49.439Z,19.98
2018-04-23T10:23:53.809Z,19.90
2018-04-23T10:26:57.153Z,20.09
2018-04-23T10:30:00.581Z,20.12
2018-04-23T10:33:03.781Z,20.12
2018-04-23T10:36:07.158Z,20.23
2018-04-23T10:39:10.557Z,20.52
2018-04-23T10:42:13.809Z,20.51
2018-04-23T10:45:16.976Z,20.62
2018-04-23T10:48:20.256Z,20.67
2018-04-23T10:51:23.647Z,20.69
2018-04-23T10:54:26.904Z,20.67
2018-04-23T10:57:30.137Z,20.45
2018-04-23T11:00:33.307Z,20.14
2018-04-23T11:03:36.564Z,20.04
2018-04-23T11:06:39.922Z,19.93
2018-04-23T11:09:44.076Z,19.92
2018-04-23T11:12:47.296Z,20.13
2018-04-23T11:15:50.651Z,20.34
2018-04-23T11:18:53.964Z,20.39
2018-04-23T11:21:57.488Z,20.15
2018-04-23T11:25:00.921Z,20.08
2018-04-23T11:28:04.403Z,19.96
2018-04-23T11:31:07.608Z,19.93
2018-04-23T11:34:10.884Z,19.97
2018-04-23T11:37:14.233Z,19.93
2018-04-23T11:40:17.506Z,19.88
2018-04-23T11:43:20.783Z,19.85
2018-04-23T11:46:24.313Z,19.94
2018-04-23T11:49:27.623Z,20.09
2018-04-23T11:52:31.045Z,20.27
2018-04-23T11:55:34.281Z,20.17
2018-04-23T11:58:37.477Z,20.32
2018-04-23T12:01:40.884Z,20.34
2018-04-23T12:04:44.200Z,20.28
2018-04-23T12:07:47.653Z,20.28
2018-04-23T12:10:51.058Z,20.37
2018-04-23T12:13:54.392Z,20.40
2018-04-23T12:16:57.623Z,20.55
2018-04-23T12:20:01.017Z,20.38
2018-04-23T12:23:04.370Z,20.28
2018-04-23T12:26:24.673Z,20.30
2018-04-23T12:29:28.272Z,20.42
2018-04-23T12:32:31.715Z,20.38
2018-04-23T12:35:35.023Z,20.41
2018-04-23T12:38:38.384Z,20.73
2018-04-23T12:41:41.537Z,20.91
2018-04-23T12:44:44.863Z,20.98
2018-04-23T12:47:48.228Z,21.10
2018-04-23T12:50:51.560Z,21.22
2018-04-23T12:53:54.960Z,21.16
2018-04-23T12:56:58.510Z,21.43
2018-04-23T13:00:01.823Z,21.71
2018-04-23T13:03:05.062Z,22.07
2018-04-23T13:06:09.437Z,22.10
2018-04-23T13:09:12.753Z,22.30
2018-04-23T13:12:16.201Z,22.14
2018-04-23T13:15:20.541Z,22.16
2018-04-23T13:18:23.929Z,22.03
2018-04-23T13:21:27.199Z,22.19
2018-04-23T13:24:31.601Z,22.52
2018-04-23T13:27:34.956Z,22.38
2018-04-23T13:30:38.266Z,22.35
2018-04-23T13:33:41.965Z,22.24
2018-04-23T13:36:45.285Z,22.03
2018-04-23T13:39:48.506Z,22.10
2018-04-23T13:42:51.857Z,22.19
2018-04-23T13:45:55.021Z,22.17
2018-04-23T13:48:58.449Z,22.05
2018-04-23T13:52:01.698Z,22.06
2018-04-23T13:55:05.116Z,22.17
2018-04-23T13:58:08.457Z,22.60
2018-04-23T14:01:11.766Z,22.62
2018-04-23T14:04:16.191Z,22.80
2018-04-23T14:07:19.569Z,22.58
2018-04-23T14:10:22.751Z,22.64
2018-04-23T14:13:27.163Z,22.54
2018-04-23T14:16:30.447Z,22.57
2018-04-23T14:19:33.826Z,22.77
2018-04-23T14:22:37.146Z,22.74
2018-04-23T14:25:40.485Z,22.77
2018-04-23T14:28:43.897Z,22.62
2018-04-23T14:31:47.347Z,22.38
2018-04-23T14:34:50.687Z,22.23
2018-04-23T14:37:54.002Z,22.14
2018-04-23T14:40:57.345Z,22.09
2018-04-23T14:44:00.701Z,22.01
2018-04-23T14:47:04.085Z,22.00
2018-04-23T14:50:07.415Z,22.08
2018-04-23T14:53:10.807Z,22.03
2018-04-23T14:56:14.240Z,21.83
2018-04-23T14:59:17.627Z,21.68
2018-04-23T15:02:20.901Z,21.63
2018-04-23T15:05:24.272Z,21.48
2018-04-23T15:08:27.681Z,21.52
2018-04-23T15:11:30.832Z,21.48
2018-04-23T15:14:34.134Z,21.42
2018-04-23T15:17:37.468Z,21.41
2018-04-23T15:20:40.880Z,21.35
2018-04-23T15:23:44.223Z,21.17
2018-04-23T15:26:47.583Z,21.12
2018-04-23T15:29:50.858Z,21.04
2018-04-23T15:32:54.212Z,21.01
2018-04-23T15:35:57.620Z,21.00
2018-04-23T15:39:01.884Z,20.92
2018-04-23T15:42:05.091Z,20.89
2018-04-23T15:45:08.843Z,20.81
2018-04-23T15:48:12.774Z,20.67
2018-04-23T15:51:16.841Z,20.65
2018-04-23T15:54:20.822Z,20.44
2018-04-23T15:57:24.389Z,20.47
2018-04-23T16:00:28.097Z,20.44
2018-04-23T16:03:31.907Z,20.40
2018-04-23T18:13:48.545Z,18.90
2018-04-23T18:48:37.482Z,18.16
2018-04-23T18:51:40.654Z,18.14
2018-04-23T18:54:43.998Z,18.11
2018-04-23T18:57:47.274Z,18.07
2018-04-23T19:00:50.672Z,17.97
2018-04-23T19:03:53.947Z,17.95
2018-04-23T19:06:57.646Z,17.75
2018-04-23T19:10:01.085Z,17.62
2018-04-23T19:13:04.472Z,17.71
2018-04-23T19:16:08.807Z,17.81
2018-04-23T19:19:12.200Z,17.81
2018-04-23T19:22:15.380Z,17.71
2018-04-23T19:25:18.868Z,17.60
2018-04-23T19:28:22.212Z,17.65
2018-04-23T19:31:26.132Z,17.63
2018-04-23T19:34:29.470Z,17.49
2018-04-23T19:37:32.690Z,17.47
2018-04-23T19:40:36.199Z,17.46
2018-04-23T19:43:39.590Z,17.54
2018-04-23T19:46:42.906Z,17.50
2018-04-23T19:49:46.297Z,17.34
2018-04-23T19:52:49.700Z,17.39
2018-04-23T19:55:54.498Z,17.25
2018-04-23T19:58:57.830Z,17.20
2018-04-23T20:02:02.160Z,17.20
2018-04-23T20:05:05.561Z,17.19
2018-04-23T20:08:08.866Z,17.12
2018-04-23T20:11:12.255Z,17.06
2018-04-23T20:14:15.569Z,16.96
2018-04-23T20:17:18.960Z,16.97
2018-04-23T20:20:22.428Z,16.96
2018-04-23T20:23:25.744Z,16.91
2018-04-23T20:26:29.191Z,16.93
2018-04-23T20:29:32.498Z,16.87
2018-04-23T20:32:35.844Z,16.83
2018-04-23T20:35:39.136Z,16.81
2018-04-23T20:38:42.483Z,16.74
2018-04-23T20:41:45.803Z,16.71
2018-04-23T20:44:49.073Z,16.70
2018-04-23T20:47:52.439Z,16.71
2018-04-23T20:50:55.625Z,16.68
2018-04-23T20:54:00.081Z,16.64
2018-04-23T20:57:04.255Z,16.61
2018-04-23T21:00:09.324Z,16.52
2018-04-23T21:03:13.524Z,16.59
2018-04-23T21:06:17.431Z,16.57
2018-04-23T21:09:22.812Z,16.57
2018-04-23T21:12:26.764Z,16.58
2018-04-23T21:15:31.740Z,16.59
2018-04-23T21:18:35.348Z,16.61
2018-04-23T21:21:38.656Z,16.60
2018-04-23T21:24:41.941Z,16.59
2018-04-23T21:27:45.378Z,16.46
2018-04-23T21:30:48.747Z,16.46
2018-04-23T21:33:51.969Z,16.49
2018-04-23T21:36:56.346Z,16.42
2018-04-23T21:39:59.991Z,16.40
2018-04-23T21:43:04.230Z,16.42
2018-04-23T21:46:07.588Z,16.35
2018-04-23T21:49:10.874Z,16.36
2018-04-23T21:52:14.268Z,16.33
2018-04-23T21:55:17.711Z,16.24
2018-04-23T21:58:21.080Z,16.17
2018-04-23T22:01:25.398Z,16.09
2018-04-23T22:04:28.721Z,15.96
2018-04-23T22:07:33.873Z,15.98
2018-04-23T22:10:37.129Z,15.96
2018-04-23T22:13:40.683Z,15.97
2018-04-23T22:16:43.982Z,15.95
2018-04-23T22:19:47.331Z,16.01
2018-04-23T22:22:50.741Z,16.02
2018-04-23T22:25:54.001Z,15.90
2018-04-23T22:28:57.332Z,15.88
2018-04-23T22:32:00.625Z,15.82
2018-04-23T22:35:04.152Z,15.76
2018-04-23T22:38:07.517Z,15.78
2018-04-23T22:41:10.816Z,15.75
2018-04-23T22:44:14.224Z,15.77
2018-04-23T22:47:17.594Z,15.82
2018-04-23T22:50:20.944Z,15.86
2018-04-23T22:53:24.283Z,15.85
2018-04-23T22:56:27.617Z,15.80
2018-04-23T22:59:31.195Z,15.80
2018-04-23T23:02:34.557Z,15.75
2018-04-23T23:05:37.926Z,15.80
2018-04-23T23:08:41.067Z,15.80
2018-04-23T23:11:44.488Z,15.79
2018-04-23T23:14:47.755Z,15.77
2018-04-23T23:17:51.116Z,15.76
2018-04-23T23:20:54.408Z,15.72
2018-04-23T23:23:57.709Z,15.69
2018-04-23T23:27:01.184Z,15.60
2018-04-23T23:30:04.683Z,15.59
2018-04-23T23:33:08.013Z,15.55
2018-04-23T23:36:11.418Z,15.49
2018-04-23T23:39:15.735Z,15.51
2018-04-23T23:42:19.228Z,15.48
2018-04-23T23:45:22.383Z,15.42
2018-04-23T23:48:25.721Z,15.44
2018-04-23T23:51:29.041Z,15.45
2018-04-23T23:54:32.544Z,15.46
2018-04-23T23:57:41.576Z,15.45
